sensor_id;sensor_type;location;lat;lon;timestamp;temperature;humidity
22850;DHT22;11591;44.792;10.358;2023-08-06T04:25:35;19.40;99.90
22850;DHT22;11591;44.792;10.358;2023-08-06T04:28:01;19.30;99.90
22850;DHT22;11591;44.792;10.358;2023-08-06T04:30:28;19.30;99.90
22850;DHT22;11591;44.792;10.358;2023-08-06T04:32:54;19.30;99.90
22850;DHT22;11591;44.792;10.358;2023-08-06T04:35:20;19.30;99.90
22850;DHT22;11591;44.792;10.358;2023-08-06T04:37:46;19.30;99.90
22850;DHT22;11591;44.792;10.358;2023-08-06T04:40:12;19.30;99.90
22850;DHT22;11591;44.792;10.358;2023-08-06T04:42:39;19.30;99.90
22850;DHT22;11591;44.792;10.358;2023-08-06T04:45:05;19.30;99.90
22850;DHT22;11591;44.792;10.358;2023-08-06T04:47:31;19.30;99.90
22850;DHT22;11591;44.792;10.358;2023-08-06T04:49:57;19.30;99.90
22850;DHT22;11591;44.792;10.358;2023-08-06T04:52:23;19.30;99.90
22850;DHT22;11591;44.792;10.358;2023-08-06T04:54:48;19.40;99.90
22850;DHT22;11591;44.792;10.358;2023-08-06T04:57:14;19.40;99.90
22850;DHT22;11591;44.792;10.358;2023-08-06T04:59:40;19.50;99.90
22850;DHT22;11591;44.792;10.358;2023-08-06T05:02:06;19.60;99.90
22850;DHT22;11591;44.792;10.358;2023-08-06T05:04:32;19.70;99.90
22850;DHT22;11591;44.792;10.358;2023-08-06T05:06:58;19.80;99.90
22850;DHT22;11591;44.792;10.358;2023-08-06T05:09:24;19.90;99.90
22850;DHT22;11591;44.792;10.358;2023-08-06T05:11:49;20.00;99.90
22850;DHT22;11591;44.792;10.358;2023-08-06T05:14:15;20.10;99.90
22850;DHT22;11591;44.792;10.358;2023-08-06T05:16:41;20.20;99.90
22850;DHT22;11591;44.792;10.358;2023-08-06T05:19:07;20.30;99.90
22850;DHT22;11591;44.792;10.358;2023-08-06T05:21:32;20.40;99.90
22850;DHT22;11591;44.792;10.358;2023-08-06T05:23:58;20.40;99.90
22850;DHT22;11591;44.792;10.358;2023-08-06T05:26:24;20.40;99.90
22850;DHT22;11591;44.792;10.358;2023-08-06T05:28:50;20.50;99.90
22850;DHT22;11591;44.792;10.358;2023-08-06T05:31:15;20.60;99.90
22850;DHT22;11591;44.792;10.358;2023-08-06T05:33:41;20.70;99.90
22850;DHT22;11591;44.792;10.358;2023-08-06T05:36:07;20.70;99.90
22850;DHT22;11591;44.792;10.358;2023-08-06T05:38:33;20.80;99.90
22850;DHT22;11591;44.792;10.358;2023-08-06T05:40:59;20.80;99.90
22850;DHT22;11591;44.792;10.358;2023-08-06T05:43:24;20.90;99.90
22850;DHT22;11591;44.792;10.358;2023-08-06T05:45:50;21.00;99.90
22850;DHT22;11591;44.792;10.358;2023-08-06T05:48:16;21.10;99.90
22850;DHT22;11591;44.792;10.358;2023-08-06T05:50:42;21.20;99.90
22850;DHT22;11591;44.792;10.358;2023-08-06T05:53:08;21.30;99.90
22850;DHT22;11591;44.792;10.358;2023-08-06T05:55:34;21.40;99.90
22850;DHT22;11591;44.792;10.358;2023-08-06T05:58:00;21.40;99.90
22850;DHT22;11591;44.792;10.358;2023-08-06T06:00:26;21.40;99.90
22850;DHT22;11591;44.792;10.358;2023-08-06T06:02:51;21.50;99.90
22850;DHT22;11591;44.792;10.358;2023-08-06T06:05:17;21.50;99.90
22850;DHT22;11591;44.792;10.358;2023-08-06T06:07:43;21.60;99.90
22850;DHT22;11591;44.792;10.358;2023-08-06T06:10:09;21.60;99.90
22850;DHT22;11591;44.792;10.358;2023-08-06T06:12:35;21.70;99.90
22850;DHT22;11591;44.792;10.358;2023-08-06T06:15:00;21.80;99.90
22850;DHT22;11591;44.792;10.358;2023-08-06T06:17:27;21.80;99.90
22850;DHT22;11591;44.792;10.358;2023-08-06T06:19:53;21.90;99.90
22850;DHT22;11591;44.792;10.358;2023-08-06T06:22:19;21.90;99.90
22850;DHT22;11591;44.792;10.358;2023-08-06T06:24:44;22.00;99.90
22850;DHT22;11591;44.792;10.358;2023-08-06T06:27:10;22.10;99.90
22850;DHT22;11591;44.792;10.358;2023-08-06T06:29:36;22.10;99.90
22850;DHT22;11591;44.792;10.358;2023-08-06T06:32:02;22.10;99.90
22850;DHT22;11591;44.792;10.358;2023-08-06T06:34:27;22.10;99.90
22850;DHT22;11591;44.792;10.358;2023-08-06T06:36:53;22.00;99.90
22850;DHT22;11591;44.792;10.358;2023-08-06T06:39:21;21.90;99.90
22850;DHT22;11591;44.792;10.358;2023-08-06T06:41:47;21.90;99.90
22850;DHT22;11591;44.792;10.358;2023-08-06T06:44:22;21.90;99.90
22850;DHT22;11591;44.792;10.358;2023-08-06T06:46:48;21.90;99.90
22850;DHT22;11591;44.792;10.358;2023-08-06T06:49:14;22.00;99.90
22850;DHT22;11591;44.792;10.358;2023-08-06T06:51:40;22.10;99.90
22850;DHT22;11591;44.792;10.358;2023-08-06T06:54:06;22.10;99.90
22850;DHT22;11591;44.792;10.358;2023-08-06T06:56:31;22.10;99.90
22850;DHT22;11591;44.792;10.358;2023-08-06T06:58:57;22.10;99.90
22850;DHT22;11591;44.792;10.358;2023-08-06T07:14:53;22.30;99.90
22850;DHT22;11591;44.792;10.358;2023-08-06T07:17:19;22.30;99.90
22850;DHT22;11591;44.792;10.358;2023-08-06T07:19:45;22.30;99.90
22850;DHT22;11591;44.792;10.358;2023-08-06T08:05:55;22.90;99.90
22850;DHT22;11591;44.792;10.358;2023-08-06T08:08:23;22.90;99.90
22850;DHT22;11591;44.792;10.358;2023-08-06T08:10:49;23.00;99.90
22850;DHT22;11591;44.792;10.358;2023-08-06T08:19:31;23.10;99.90
22850;DHT22;11591;44.792;10.358;2023-08-06T08:21:57;23.10;99.90
22850;DHT22;11591;44.792;10.358;2023-08-06T08:24:23;23.10;99.90
22850;DHT22;11591;44.792;10.358;2023-08-06T08:26:50;23.20;99.90
22850;DHT22;11591;44.792;10.358;2023-08-06T08:29:16;23.30;99.90
22850;DHT22;11591;44.792;10.358;2023-08-06T08:31:42;23.40;99.90
22850;DHT22;11591;44.792;10.358;2023-08-06T08:34:09;23.40;99.90
22850;DHT22;11591;44.792;10.358;2023-08-06T08:36:34;23.50;99.90
22850;DHT22;11591;44.792;10.358;2023-08-06T08:39:00;23.60;99.90
22850;DHT22;11591;44.792;10.358;2023-08-06T08:41:31;23.70;99.90
22850;DHT22;11591;44.792;10.358;2023-08-06T08:43:58;23.70;99.90
22850;DHT22;11591;44.792;10.358;2023-08-06T08:46:29;23.80;99.90
22850;DHT22;11591;44.792;10.358;2023-08-06T08:48:57;23.90;99.90
22850;DHT22;11591;44.792;10.358;2023-08-06T08:51:24;24.00;99.90
22850;DHT22;11591;44.792;10.358;2023-08-06T08:53:52;24.00;99.90
22850;DHT22;11591;44.792;10.358;2023-08-06T08:56:19;24.20;99.90
22850;DHT22;11591;44.792;10.358;2023-08-06T08:58:45;24.20;99.90
22850;DHT22;11591;44.792;10.358;2023-08-06T09:01:11;24.30;99.90
22850;DHT22;11591;44.792;10.358;2023-08-06T09:03:37;24.40;99.90
22850;DHT22;11591;44.792;10.358;2023-08-06T09:06:04;24.40;99.90
22850;DHT22;11591;44.792;10.358;2023-08-06T09:08:36;24.50;99.90
22850;DHT22;11591;44.792;10.358;2023-08-06T09:11:04;24.50;99.90
22850;DHT22;11591;44.792;10.358;2023-08-06T09:13:30;24.50;99.90
22850;DHT22;11591;44.792;10.358;2023-08-06T09:15:56;24.70;99.90
22850;DHT22;11591;44.792;10.358;2023-08-06T09:18:26;24.90;99.90
22850;DHT22;11591;44.792;10.358;2023-08-06T09:20:55;25.10;99.90
22850;DHT22;11591;44.792;10.358;2023-08-06T09:23:21;25.10;99.90
22850;DHT22;11591;44.792;10.358;2023-08-06T09:25:53;25.10;99.90
22850;DHT22;11591;44.792;10.358;2023-08-06T09:28:19;25.20;99.90
22850;DHT22;11591;44.792;10.358;2023-08-06T09:30:47;25.20;99.90
22850;DHT22;11591;44.792;10.358;2023-08-06T09:33:18;25.20;99.90
22850;DHT22;11591;44.792;10.358;2023-08-06T09:35:46;25.30;99.90
22850;DHT22;11591;44.792;10.358;2023-08-06T09:38:12;25.30;99.90
22850;DHT22;11591;44.792;10.358;2023-08-06T09:40:39;25.40;99.90
22850;DHT22;11591;44.792;10.358;2023-08-06T09:43:05;25.50;99.90
22850;DHT22;11591;44.792;10.358;2023-08-06T09:48:08;25.70;97.80
22850;DHT22;11591;44.792;10.358;2023-08-06T09:50:36;25.80;96.40
22850;DHT22;11591;44.792;10.358;2023-08-06T09:53:03;25.80;96.00
22850;DHT22;11591;44.792;10.358;2023-08-06T09:55:29;26.00;96.50
22850;DHT22;11591;44.792;10.358;2023-08-06T09:57:55;26.00;95.10
22850;DHT22;11591;44.792;10.358;2023-08-06T10:00:27;26.10;93.00
22850;DHT22;11591;44.792;10.358;2023-08-06T10:03:01;26.20;92.20
22850;DHT22;11591;44.792;10.358;2023-08-06T10:05:27;26.20;93.20
22850;DHT22;11591;44.792;10.358;2023-08-06T10:07:53;26.30;91.20
22850;DHT22;11591;44.792;10.358;2023-08-06T10:10:21;26.50;91.60
22850;DHT22;11591;44.792;10.358;2023-08-06T10:12:50;26.60;91.10
22850;DHT22;11591;44.792;10.358;2023-08-06T10:15:22;26.70;91.40
22850;DHT22;11591;44.792;10.358;2023-08-06T10:17:51;26.60;90.80
22850;DHT22;11591;44.792;10.358;2023-08-06T10:20:18;26.70;90.70
22850;DHT22;11591;44.792;10.358;2023-08-06T10:23:00;26.70;90.00
22850;DHT22;11591;44.792;10.358;2023-08-06T10:25:26;26.80;89.80
22850;DHT22;11591;44.792;10.358;2023-08-06T10:27:55;26.70;86.40
22850;DHT22;11591;44.792;10.358;2023-08-06T10:30:29;26.80;87.10
22850;DHT22;11591;44.792;10.358;2023-08-06T10:33:03;26.90;87.30
22850;DHT22;11591;44.792;10.358;2023-08-06T10:35:44;27.20;86.20
22850;DHT22;11591;44.792;10.358;2023-08-06T10:38:25;27.20;85.40
22850;DHT22;11591;44.792;10.358;2023-08-06T10:43:29;27.40;81.20
22850;DHT22;11591;44.792;10.358;2023-08-06T10:45:57;27.50;82.80
22850;DHT22;11591;44.792;10.358;2023-08-06T10:48:39;27.40;82.40
22850;DHT22;11591;44.792;10.358;2023-08-06T10:51:10;27.40;80.60
22850;DHT22;11591;44.792;10.358;2023-08-06T10:53:37;27.50;80.10
22850;DHT22;11591;44.792;10.358;2023-08-06T10:56:15;27.50;80.10
22850;DHT22;11591;44.792;10.358;2023-08-06T10:58:42;27.50;80.40
22850;DHT22;11591;44.792;10.358;2023-08-06T11:01:08;27.60;81.40
22850;DHT22;11591;44.792;10.358;2023-08-06T11:03:34;27.60;79.10
22850;DHT22;11591;44.792;10.358;2023-08-06T11:06:00;27.60;79.50
22850;DHT22;11591;44.792;10.358;2023-08-06T11:08:29;27.60;79.70
22850;DHT22;11591;44.792;10.358;2023-08-06T11:10:55;27.50;78.70
22850;DHT22;11591;44.792;10.358;2023-08-06T11:13:33;27.50;77.20
22850;DHT22;11591;44.792;10.358;2023-08-06T11:15:58;27.50;77.90
22850;DHT22;11591;44.792;10.358;2023-08-06T11:18:24;27.60;79.50
22850;DHT22;11591;44.792;10.358;2023-08-06T11:20:50;27.70;80.70
22850;DHT22;11591;44.792;10.358;2023-08-06T11:23:16;27.80;77.30
22850;DHT22;11591;44.792;10.358;2023-08-06T11:25:45;27.80;76.80
22850;DHT22;11591;44.792;10.358;2023-08-06T11:28:12;27.80;76.10
22850;DHT22;11591;44.792;10.358;2023-08-06T11:30:38;27.80;75.50
22850;DHT22;11591;44.792;10.358;2023-08-06T11:33:07;27.80;77.10
22850;DHT22;11591;44.792;10.358;2023-08-06T11:35:35;27.80;77.50
22850;DHT22;11591;44.792;10.358;2023-08-06T11:38:02;27.80;77.80
22850;DHT22;11591;44.792;10.358;2023-08-06T11:40:27;27.80;78.20
22850;DHT22;11591;44.792;10.358;2023-08-06T11:42:53;27.80;77.00
22850;DHT22;11591;44.792;10.358;2023-08-06T11:45:23;27.80;76.20
22850;DHT22;11591;44.792;10.358;2023-08-06T11:47:50;27.90;77.80
22850;DHT22;11591;44.792;10.358;2023-08-06T11:50:27;27.90;77.80
22850;DHT22;11591;44.792;10.358;2023-08-06T11:52:58;27.80;78.70
22850;DHT22;11591;44.792;10.358;2023-08-06T11:55:26;27.80;79.40
22850;DHT22;11591;44.792;10.358;2023-08-06T11:57:54;27.90;79.00
22850;DHT22;11591;44.792;10.358;2023-08-06T12:00:23;27.90;78.50
22850;DHT22;11591;44.792;10.358;2023-08-06T12:02:50;28.00;78.90
22850;DHT22;11591;44.792;10.358;2023-08-06T12:05:19;28.10;77.30
22850;DHT22;11591;44.792;10.358;2023-08-06T12:07:58;28.00;77.90
22850;DHT22;11591;44.792;10.358;2023-08-06T12:10:26;28.00;78.40
22850;DHT22;11591;44.792;10.358;2023-08-06T12:12:53;28.00;79.00
22850;DHT22;11591;44.792;10.358;2023-08-06T12:15:19;28.10;78.40
22850;DHT22;11591;44.792;10.358;2023-08-06T12:17:45;28.20;77.30
22850;DHT22;11591;44.792;10.358;2023-08-06T12:20:11;28.30;76.20
22850;DHT22;11591;44.792;10.358;2023-08-06T12:22:38;28.30;76.00
22850;DHT22;11591;44.792;10.358;2023-08-06T12:25:07;28.30;75.10
22850;DHT22;11591;44.792;10.358;2023-08-06T12:27:40;28.30;76.00
22850;DHT22;11591;44.792;10.358;2023-08-06T12:30:07;28.30;75.90
22850;DHT22;11591;44.792;10.358;2023-08-06T12:32:33;28.40;76.60
22850;DHT22;11591;44.792;10.358;2023-08-06T12:35:00;28.40;75.80
22850;DHT22;11591;44.792;10.358;2023-08-06T12:37:27;28.40;76.30
22850;DHT22;11591;44.792;10.358;2023-08-06T12:39:53;28.50;76.20
22850;DHT22;11591;44.792;10.358;2023-08-06T12:42:19;28.50;77.50
22850;DHT22;11591;44.792;10.358;2023-08-06T12:44:44;28.50;77.30
22850;DHT22;11591;44.792;10.358;2023-08-06T12:47:10;28.60;76.20
22850;DHT22;11591;44.792;10.358;2023-08-06T12:49:36;28.70;75.30
22850;DHT22;11591;44.792;10.358;2023-08-06T12:52:03;28.70;75.80
22850;DHT22;11591;44.792;10.358;2023-08-06T12:54:31;28.70;76.10
22850;DHT22;11591;44.792;10.358;2023-08-06T12:57:02;28.80;76.70
22850;DHT22;11591;44.792;10.358;2023-08-06T12:59:28;28.90;75.70
22850;DHT22;11591;44.792;10.358;2023-08-06T13:01:54;28.80;75.60
22850;DHT22;11591;44.792;10.358;2023-08-06T13:04:20;28.80;76.70
22850;DHT22;11591;44.792;10.358;2023-08-06T13:06:46;29.00;76.90
22850;DHT22;11591;44.792;10.358;2023-08-06T13:09:13;29.00;76.10
22850;DHT22;11591;44.792;10.358;2023-08-06T13:11:39;29.00;76.60
22850;DHT22;11591;44.792;10.358;2023-08-06T13:14:10;29.00;74.00
22850;DHT22;11591;44.792;10.358;2023-08-06T13:16:37;29.10;74.00
22850;DHT22;11591;44.792;10.358;2023-08-06T13:19:04;29.10;73.90
22850;DHT22;11591;44.792;10.358;2023-08-06T13:24:15;29.10;73.30
22850;DHT22;11591;44.792;10.358;2023-08-06T13:26:41;29.20;73.70
22850;DHT22;11591;44.792;10.358;2023-08-06T13:29:07;29.20;72.00
22850;DHT22;11591;44.792;10.358;2023-08-06T13:31:33;29.30;72.00
22850;DHT22;11591;44.792;10.358;2023-08-06T13:33:59;29.40;70.60
22850;DHT22;11591;44.792;10.358;2023-08-06T13:36:26;29.40;67.90
22850;DHT22;11591;44.792;10.358;2023-08-06T13:38:52;29.40;65.30
22850;DHT22;11591;44.792;10.358;2023-08-06T13:41:18;29.40;65.20
22850;DHT22;11591;44.792;10.358;2023-08-06T13:43:44;29.40;66.20
22850;DHT22;11591;44.792;10.358;2023-08-06T13:46:10;29.50;65.90
22850;DHT22;11591;44.792;10.358;2023-08-06T13:48:42;29.50;63.60
22850;DHT22;11591;44.792;10.358;2023-08-06T13:51:08;29.60;64.60
22850;DHT22;11591;44.792;10.358;2023-08-06T13:53:34;29.60;64.50
22850;DHT22;11591;44.792;10.358;2023-08-06T13:55:59;29.60;62.10
22850;DHT22;11591;44.792;10.358;2023-08-06T13:58:25;29.60;60.00
22850;DHT22;11591;44.792;10.358;2023-08-06T14:00:52;29.60;60.00
22850;DHT22;11591;44.792;10.358;2023-08-06T14:03:20;29.60;61.90
22850;DHT22;11591;44.792;10.358;2023-08-06T14:05:46;29.60;61.70
22850;DHT22;11591;44.792;10.358;2023-08-06T14:08:11;29.70;59.50
22850;DHT22;11591;44.792;10.358;2023-08-06T14:10:37;29.70;59.20
22850;DHT22;11591;44.792;10.358;2023-08-06T14:13:03;29.70;59.60
22850;DHT22;11591;44.792;10.358;2023-08-06T14:15:29;29.70;60.80
22850;DHT22;11591;44.792;10.358;2023-08-06T14:17:55;29.80;60.10
22850;DHT22;11591;44.792;10.358;2023-08-06T14:20:20;29.90;60.10
22850;DHT22;11591;44.792;10.358;2023-08-06T14:22:48;29.90;61.30
22850;DHT22;11591;44.792;10.358;2023-08-06T14:25:13;30.00;61.80
22850;DHT22;11591;44.792;10.358;2023-08-06T14:27:39;30.10;59.40
22850;DHT22;11591;44.792;10.358;2023-08-06T14:30:06;30.10;59.60
22850;DHT22;11591;44.792;10.358;2023-08-06T14:32:33;30.30;60.60
22850;DHT22;11591;44.792;10.358;2023-08-06T14:34:58;30.50;58.20
22850;DHT22;11591;44.792;10.358;2023-08-06T14:37:24;30.40;58.50
22850;DHT22;11591;44.792;10.358;2023-08-06T14:39:51;30.70;58.70
22850;DHT22;11591;44.792;10.358;2023-08-06T14:42:17;30.90;58.80
22850;DHT22;11591;44.792;10.358;2023-08-06T14:44:43;31.20;58.80
22850;DHT22;11591;44.792;10.358;2023-08-06T14:47:09;31.40;58.40
22850;DHT22;11591;44.792;10.358;2023-08-06T14:49:35;31.60;58.60
22850;DHT22;11591;44.792;10.358;2023-08-06T14:52:00;31.60;57.50
22850;DHT22;11591;44.792;10.358;2023-08-06T14:54:27;31.60;57.00
22850;DHT22;11591;44.792;10.358;2023-08-06T14:56:53;31.60;56.20
22850;DHT22;11591;44.792;10.358;2023-08-06T14:59:19;31.50;57.20
22850;DHT22;11591;44.792;10.358;2023-08-06T15:01:45;31.70;57.30
22850;DHT22;11591;44.792;10.358;2023-08-06T15:04:11;31.60;55.70
22850;DHT22;11591;44.792;10.358;2023-08-06T15:06:37;31.60;55.40
22850;DHT22;11591;44.792;10.358;2023-08-06T15:09:02;31.40;55.20
22850;DHT22;11591;44.792;10.358;2023-08-06T15:11:28;31.60;56.10
22850;DHT22;11591;44.792;10.358;2023-08-06T15:13:54;31.80;56.70
22850;DHT22;11591;44.792;10.358;2023-08-06T15:16:20;32.00;55.00
22850;DHT22;11591;44.792;10.358;2023-08-06T15:18:46;32.00;53.50
22850;DHT22;11591;44.792;10.358;2023-08-06T15:21:12;31.90;53.70
22850;DHT22;11591;44.792;10.358;2023-08-06T15:23:37;31.90;53.80
22850;DHT22;11591;44.792;10.358;2023-08-06T15:26:03;31.80;54.40
22850;DHT22;11591;44.792;10.358;2023-08-06T15:28:29;31.90;54.30
22850;DHT22;11591;44.792;10.358;2023-08-06T15:30:55;31.70;54.50
22850;DHT22;11591;44.792;10.358;2023-08-06T15:33:21;31.90;54.40
22850;DHT22;11591;44.792;10.358;2023-08-06T15:35:48;32.10;54.80
22850;DHT22;11591;44.792;10.358;2023-08-06T15:38:14;31.90;53.80
22850;DHT22;11591;44.792;10.358;2023-08-06T15:40:40;31.80;54.80
22850;DHT22;11591;44.792;10.358;2023-08-06T15:43:06;31.80;54.20
22850;DHT22;11591;44.792;10.358;2023-08-06T15:45:32;32.00;55.10
22850;DHT22;11591;44.792;10.358;2023-08-06T15:47:57;32.10;54.80
22850;DHT22;11591;44.792;10.358;2023-08-06T15:50:24;32.40;54.50
22850;DHT22;11591;44.792;10.358;2023-08-06T15:52:50;32.40;53.90
22850;DHT22;11591;44.792;10.358;2023-08-06T15:55:16;32.20;54.20
22850;DHT22;11591;44.792;10.358;2023-08-06T15:57:41;32.10;55.10
22850;DHT22;11591;44.792;10.358;2023-08-06T16:00:09;32.20;55.20
22850;DHT22;11591;44.792;10.358;2023-08-06T16:02:38;32.10;55.70
22850;DHT22;11591;44.792;10.358;2023-08-06T16:05:04;32.10;55.50
22850;DHT22;11591;44.792;10.358;2023-08-06T16:07:30;31.90;56.10
22850;DHT22;11591;44.792;10.358;2023-08-06T16:09:56;32.00;56.40
22850;DHT22;11591;44.792;10.358;2023-08-06T16:12:22;31.80;55.90
22850;DHT22;11591;44.792;10.358;2023-08-06T16:14:48;31.90;56.00
22850;DHT22;11591;44.792;10.358;2023-08-06T16:17:15;31.80;55.40
22850;DHT22;11591;44.792;10.358;2023-08-06T16:19:41;31.80;55.80
22850;DHT22;11591;44.792;10.358;2023-08-06T16:22:07;31.60;55.40
22850;DHT22;11591;44.792;10.358;2023-08-06T16:24:32;31.60;56.40
22850;DHT22;11591;44.792;10.358;2023-08-06T16:26:58;31.60;57.20
22850;DHT22;11591;44.792;10.358;2023-08-06T16:29:24;31.30;56.90
22850;DHT22;11591;44.792;10.358;2023-08-06T16:31:50;31.20;57.00
22850;DHT22;11591;44.792;10.358;2023-08-06T16:34:17;31.20;56.90
22850;DHT22;11591;44.792;10.358;2023-08-06T16:36:42;31.00;57.10
22850;DHT22;11591;44.792;10.358;2023-08-06T16:39:08;31.20;57.40
22850;DHT22;11591;44.792;10.358;2023-08-06T16:41:34;31.40;57.40
22850;DHT22;11591;44.792;10.358;2023-08-06T16:44:00;31.40;56.80
22850;DHT22;11591;44.792;10.358;2023-08-06T16:46:26;31.40;56.80
22850;DHT22;11591;44.792;10.358;2023-08-06T16:48:51;31.30;57.30
22850;DHT22;11591;44.792;10.358;2023-08-06T16:51:17;31.30;57.40
22850;DHT22;11591;44.792;10.358;2023-08-06T16:53:43;31.30;57.30
22850;DHT22;11591;44.792;10.358;2023-08-06T16:56:12;31.20;57.30
22850;DHT22;11591;44.792;10.358;2023-08-06T16:58:38;31.20;57.70
22850;DHT22;11591;44.792;10.358;2023-08-06T17:01:04;31.20;57.90
22850;DHT22;11591;44.792;10.358;2023-08-06T17:03:33;31.20;58.00
22850;DHT22;11591;44.792;10.358;2023-08-06T17:06:00;31.10;58.10
22850;DHT22;11591;44.792;10.358;2023-08-06T17:08:27;31.00;58.40
22850;DHT22;11591;44.792;10.358;2023-08-06T17:10:58;30.90;59.00
22850;DHT22;11591;44.792;10.358;2023-08-06T17:13:24;30.90;59.40
22850;DHT22;11591;44.792;10.358;2023-08-06T17:15:51;30.90;59.30
22850;DHT22;11591;44.792;10.358;2023-08-06T17:18:17;30.70;60.30
22850;DHT22;11591;44.792;10.358;2023-08-06T17:20:43;30.70;60.70
22850;DHT22;11591;44.792;10.358;2023-08-06T17:23:09;30.70;61.10
22850;DHT22;11591;44.792;10.358;2023-08-06T17:25:35;30.90;61.40
22850;DHT22;11591;44.792;10.358;2023-08-06T17:28:01;30.90;61.80
22850;DHT22;11591;44.792;10.358;2023-08-06T17:30:30;31.00;61.90
22850;DHT22;11591;44.792;10.358;2023-08-06T17:32:55;31.10;61.70
22850;DHT22;11591;44.792;10.358;2023-08-06T17:35:21;31.10;61.60
22850;DHT22;11591;44.792;10.358;2023-08-06T17:37:50;31.00;61.60
22850;DHT22;11591;44.792;10.358;2023-08-06T17:40:19;31.00;62.10
22850;DHT22;11591;44.792;10.358;2023-08-06T17:42:44;30.90;62.10
22850;DHT22;11591;44.792;10.358;2023-08-06T17:45:10;30.70;62.50
22850;DHT22;11591;44.792;10.358;2023-08-06T17:47:36;30.70;63.20
22850;DHT22;11591;44.792;10.358;2023-08-06T17:50:02;30.70;63.30
22850;DHT22;11591;44.792;10.358;2023-08-06T17:52:29;30.60;62.60
22850;DHT22;11591;44.792;10.358;2023-08-06T17:54:55;30.60;62.90
22850;DHT22;11591;44.792;10.358;2023-08-06T17:57:21;30.50;62.80
22850;DHT22;11591;44.792;10.358;2023-08-06T17:59:46;30.40;63.20
22850;DHT22;11591;44.792;10.358;2023-08-06T18:02:12;30.40;63.50
22850;DHT22;11591;44.792;10.358;2023-08-06T18:04:38;30.30;64.00
22850;DHT22;11591;44.792;10.358;2023-08-06T18:07:04;30.30;64.10
22850;DHT22;11591;44.792;10.358;2023-08-06T18:09:30;30.10;64.40
22850;DHT22;11591;44.792;10.358;2023-08-06T18:11:56;30.00;64.70
22850;DHT22;11591;44.792;10.358;2023-08-06T18:14:22;29.90;64.80
22850;DHT22;11591;44.792;10.358;2023-08-06T18:16:47;29.80;65.40
22850;DHT22;11591;44.792;10.358;2023-08-06T18:19:13;29.70;65.50
22850;DHT22;11591;44.792;10.358;2023-08-06T18:21:39;29.60;65.90
22850;DHT22;11591;44.792;10.358;2023-08-06T18:24:05;29.60;66.00
22850;DHT22;11591;44.792;10.358;2023-08-06T18:26:31;29.40;65.90
22850;DHT22;11591;44.792;10.358;2023-08-06T18:28:57;29.30;66.30
22850;DHT22;11591;44.792;10.358;2023-08-06T18:31:22;29.20;66.60
22850;DHT22;11591;44.792;10.358;2023-08-06T18:33:48;29.00;66.80
22850;DHT22;11591;44.792;10.358;2023-08-06T18:36:14;28.90;67.00
22850;DHT22;11591;44.792;10.358;2023-08-06T18:38:40;28.80;67.30
22850;DHT22;11591;44.792;10.358;2023-08-06T18:41:07;28.70;67.80
22850;DHT22;11591;44.792;10.358;2023-08-06T18:43:33;28.50;67.70
22850;DHT22;11591;44.792;10.358;2023-08-06T18:45:59;28.30;68.10
22850;DHT22;11591;44.792;10.358;2023-08-06T18:48:25;28.20;68.40
22850;DHT22;11591;44.792;10.358;2023-08-06T18:50:51;28.10;68.70
22850;DHT22;11591;44.792;10.358;2023-08-06T18:53:18;28.00;68.90
22850;DHT22;11591;44.792;10.358;2023-08-06T18:55:47;28.00;69.10
22850;DHT22;11591;44.792;10.358;2023-08-06T18:58:15;27.90;69.30
22850;DHT22;11591;44.792;10.358;2023-08-06T19:00:41;27.90;69.30
22850;DHT22;11591;44.792;10.358;2023-08-06T19:03:07;27.80;69.30
22850;DHT22;11591;44.792;10.358;2023-08-06T19:05:37;27.70;69.30
22850;DHT22;11591;44.792;10.358;2023-08-06T19:08:05;27.60;69.60
22850;DHT22;11591;44.792;10.358;2023-08-06T19:10:31;27.60;69.50
22850;DHT22;11591;44.792;10.358;2023-08-06T19:12:59;27.50;69.30
22850;DHT22;11591;44.792;10.358;2023-08-06T19:15:25;27.50;68.70
22850;DHT22;11591;44.792;10.358;2023-08-06T19:17:53;27.40;68.90
22850;DHT22;11591;44.792;10.358;2023-08-06T19:20:19;27.30;69.40
22850;DHT22;11591;44.792;10.358;2023-08-06T19:22:45;27.30;70.90
22850;DHT22;11591;44.792;10.358;2023-08-06T19:25:12;27.30;71.80
22850;DHT22;11591;44.792;10.358;2023-08-06T19:27:37;27.10;71.50
22850;DHT22;11591;44.792;10.358;2023-08-06T19:30:04;27.10;71.70
22850;DHT22;11591;44.792;10.358;2023-08-06T19:32:30;27.00;72.30
22850;DHT22;11591;44.792;10.358;2023-08-06T19:34:56;26.90;74.00
22850;DHT22;11591;44.792;10.358;2023-08-06T19:37:22;26.80;76.10
22850;DHT22;11591;44.792;10.358;2023-08-06T19:39:49;26.80;77.30
22850;DHT22;11591;44.792;10.358;2023-08-06T19:42:18;26.70;78.80
22850;DHT22;11591;44.792;10.358;2023-08-06T19:44:44;26.60;80.70
22850;DHT22;11591;44.792;10.358;2023-08-06T19:47:10;26.60;81.90
22850;DHT22;11591;44.792;10.358;2023-08-06T19:49:35;26.50;83.00
22850;DHT22;11591;44.792;10.358;2023-08-06T19:52:01;26.40;85.10
22850;DHT22;11591;44.792;10.358;2023-08-06T19:54:28;26.40;87.10
22850;DHT22;11591;44.792;10.358;2023-08-06T19:56:55;26.30;89.40
22850;DHT22;11591;44.792;10.358;2023-08-06T19:59:21;26.30;90.10
22850;DHT22;11591;44.792;10.358;2023-08-06T20:01:49;26.20;90.90
22850;DHT22;11591;44.792;10.358;2023-08-06T20:04:18;26.10;91.60
22850;DHT22;11591;44.792;10.358;2023-08-06T20:06:45;26.00;92.00
22850;DHT22;11591;44.792;10.358;2023-08-06T20:09:14;26.00;92.50
22850;DHT22;11591;44.792;10.358;2023-08-06T20:11:41;25.90;92.60
22850;DHT22;11591;44.792;10.358;2023-08-06T20:14:07;25.80;92.80
22850;DHT22;11591;44.792;10.358;2023-08-06T20:16:33;25.80;92.80
22850;DHT22;11591;44.792;10.358;2023-08-06T20:18:59;25.70;93.00
22850;DHT22;11591;44.792;10.358;2023-08-06T20:21:25;25.70;92.90
22850;DHT22;11591;44.792;10.358;2023-08-06T20:23:51;25.70;93.00
22850;DHT22;11591;44.792;10.358;2023-08-06T20:26:17;25.70;93.20
22850;DHT22;11591;44.792;10.358;2023-08-06T20:28:43;25.60;93.40
22850;DHT22;11591;44.792;10.358;2023-08-06T20:31:09;25.60;93.50
22850;DHT22;11591;44.792;10.358;2023-08-06T20:33:35;25.50;93.40
22850;DHT22;11591;44.792;10.358;2023-08-06T20:36:02;25.50;93.50
22850;DHT22;11591;44.792;10.358;2023-08-06T20:38:28;25.40;93.40
22850;DHT22;11591;44.792;10.358;2023-08-06T20:40:54;25.40;93.50
22850;DHT22;11591;44.792;10.358;2023-08-06T20:43:23;25.40;93.40
22850;DHT22;11591;44.792;10.358;2023-08-06T20:45:55;25.30;93.10
22850;DHT22;11591;44.792;10.358;2023-08-06T20:48:23;25.30;92.90